Time;durP1;ratioP1;P1;durP2;ratioP2;P2;SDS_P1;SDS_P2;PMS_P1;PMS_P2;Temp;Humidity;BMP_temperature;BMP_pressure;BME280_temperature;BME280_humidity;BME280_pressure;Samples;Min_cycle;Max_cycle;Signal;HPM_P1;HPM_P2
2024/02/21 00:02:11;;;;;;;4.57;2.17;;;10.70;99.90;;;;;;5108185;28;20136;-74
2024/02/21 00:04:38;;;;;;;8.43;2.00;;;10.60;99.90;;;;;;5108694;28;20663;-75
2024/02/21 00:07:04;;;;;;;8.25;1.88;;;10.60;99.90;;;;;;5089294;28;20163;-75
2024/02/21 00:09:30;;;;;;;10.07;2.15;;;10.60;99.90;;;;;;5101575;28;20040;-75
2024/02/21 00:11:56;;;;;;;9.10;2.15;;;10.70;99.90;;;;;;5105513;28;20391;-75
2024/02/21 00:14:21;;;;;;;5.97;1.70;;;10.60;99.90;;;;;;5110783;28;20572;-75
2024/02/21 00:16:47;;;;;;;3.28;1.52;;;10.70;99.90;;;;;;5104981;28;20032;-74
2024/02/21 00:19:14;;;;;;;3.65;1.63;;;10.70;99.90;;;;;;5109952;28;20383;-75
2024/02/21 00:21:40;;;;;;;10.98;2.47;;;10.70;99.90;;;;;;5107205;28;20423;-75
2024/02/21 00:24:06;;;;;;;3.05;1.60;;;10.70;99.90;;;;;;5093105;28;20027;-75
2024/02/21 00:26:32;;;;;;;2.90;2.45;;;10.70;99.90;;;;;;5084514;28;20036;-75
2024/02/21 00:28:57;;;;;;;4.45;1.85;;;10.70;99.90;;;;;;5092587;28;20031;-75
2024/02/21 00:31:23;;;;;;;7.32;2.55;;;10.60;99.90;;;;;;5105692;28;20070;-75
2024/02/21 00:33:50;;;;;;;13.48;2.53;;;10.70;99.90;;;;;;5108746;28;20040;-75
2024/02/21 00:36:16;;;;;;;5.60;1.65;;;10.70;99.90;;;;;;5107542;28;20137;-75
2024/02/21 00:38:42;;;;;;;2.67;1.35;;;10.60;99.90;;;;;;5107286;28;20468;-75
2024/02/21 00:41:07;;;;;;;6.43;2.72;;;10.60;99.90;;;;;;5104938;28;20043;-75
2024/02/21 00:43:33;;;;;;;5.28;2.13;;;10.60;99.90;;;;;;5108947;28;20051;-75
2024/02/21 00:45:59;;;;;;;3.92;1.85;;;10.60;99.90;;;;;;5106380;28;20071;-74
2024/02/21 00:48:25;;;;;;;5.50;2.40;;;10.60;99.90;;;;;;5091599;28;20104;-75
2024/02/21 00:50:50;;;;;;;3.70;1.48;;;10.60;99.90;;;;;;5109267;28;20655;-75
2024/02/21 00:53:16;;;;;;;2.85;1.52;;;10.60;99.90;;;;;;5107946;28;20268;-74
2024/02/21 00:55:43;;;;;;;5.70;1.88;;;10.60;99.90;;;;;;5104603;28;20276;-74
2024/02/21 00:58:09;;;;;;;2.53;1.40;;;10.60;99.90;;;;;;5106475;28;20147;-75
2024/02/21 01:00:34;;;;;;;4.07;1.92;;;10.50;99.90;;;;;;5107417;28;20047;-74
2024/02/21 01:03:00;;;;;;;3.47;1.20;;;10.50;99.90;;;;;;5103998;28;20040;-74
2024/02/21 01:05:27;;;;;;;2.53;1.17;;;10.50;99.90;;;;;;5091033;28;20134;-73
2024/02/21 01:07:52;;;;;;;6.95;1.40;;;10.40;99.90;;;;;;5106875;28;20047;-73
2024/02/21 01:10:18;;;;;;;4.35;1.33;;;10.40;99.90;;;;;;5104878;28;20050;-73
2024/02/21 01:12:44;;;;;;;4.38;1.35;;;10.40;99.90;;;;;;5089730;28;20036;-74
2024/02/21 01:15:10;;;;;;;5.65;1.50;;;10.30;99.90;;;;;;5108599;28;20038;-74
2024/02/21 01:17:36;;;;;;;5.10;1.08;;;10.30;99.90;;;;;;5104144;28;20599;-74
2024/02/21 01:20:02;;;;;;;2.40;1.10;;;10.30;99.90;;;;;;5108519;28;20261;-74
2024/02/21 01:22:28;;;;;;;2.05;1.00;;;10.20;99.90;;;;;;5105586;28;20036;-74
2024/02/21 01:24:54;;;;;;;2.95;1.33;;;10.20;99.90;;;;;;5101899;28;20047;-74
2024/02/21 01:27:20;;;;;;;8.10;1.05;;;10.10;99.90;;;;;;5105303;28;20522;-74
2024/02/21 01:29:49;;;;;;;7.47;1.33;;;10.20;99.90;;;;;;5091271;28;20471;-75
2024/02/21 01:32:15;;;;;;;4.55;0.70;;;10.10;99.90;;;;;;5082601;28;20043;-74
2024/02/21 01:34:41;;;;;;;3.75;1.95;;;10.10;99.90;;;;;;5105556;28;20044;-74
2024/02/21 01:37:07;;;;;;;1.40;1.02;;;10.10;99.90;;;;;;5106746;28;20694;-74
2024/02/21 01:39:33;;;;;;;2.78;1.13;;;10.10;99.90;;;;;;5090890;28;20047;-75
2024/02/21 01:41:59;;;;;;;2.15;1.35;;;10.10;99.90;;;;;;5106665;28;20448;-74
2024/02/21 01:44:25;;;;;;;1.42;0.65;;;10.10;99.90;;;;;;5084978;28;20073;-75
2024/02/21 01:46:52;;;;;;;4.75;1.30;;;10.10;99.90;;;;;;5108970;28;20634;-75
2024/02/21 01:49:20;;;;;;;2.80;1.08;;;10.10;99.90;;;;;;5083437;28;20059;-75
2024/02/21 01:51:46;;;;;;;3.08;0.82;;;10.10;99.90;;;;;;5090682;28;20044;-75
2024/02/21 01:54:15;;;;;;;5.32;0.80;;;10.10;99.90;;;;;;5098635;28;20100;-75
2024/02/21 01:56:41;;;;;;;1.63;0.60;;;10.10;99.90;;;;;;5106499;28;20044;-74
2024/02/21 01:59:07;;;;;;;1.20;0.63;;;10.10;99.90;;;;;;5104477;28;20483;-74
2024/02/21 02:01:33;;;;;;;2.65;1.10;;;10.10;99.90;;;;;;5109785;28;20043;-76
2024/02/21 02:03:59;;;;;;;3.85;0.80;;;10.10;99.90;;;;;;5088619;28;20660;-75
2024/02/21 02:06:25;;;;;;;4.38;1.30;;;10.00;99.90;;;;;;5105169;28;20119;-75
2024/02/21 02:08:51;;;;;;;4.07;1.60;;;10.10;99.90;;;;;;5105598;28;20118;-75
2024/02/21 02:11:17;;;;;;;2.00;1.25;;;10.10;99.90;;;;;;5111746;27;20035;-75
2024/02/21 02:13:43;;;;;;;6.55;1.40;;;10.00;99.90;;;;;;5090160;28;20126;-75
2024/02/21 02:16:09;;;;;;;7.70;0.90;;;10.10;99.90;;;;;;5090002;28;20050;-75
2024/02/21 02:18:35;;;;;;;0.63;0.60;;;10.00;99.90;;;;;;5105448;28;20039;-75
2024/02/21 02:21:00;;;;;;;4.15;1.20;;;10.00;99.90;;;;;;5105125;28;20644;-74
2024/02/21 02:23:29;;;;;;;2.42;1.10;;;10.00;99.90;;;;;;5106318;28;20106;-75
2024/02/21 02:25:54;;;;;;;1.08;0.70;;;10.00;99.90;;;;;;5090992;28;20096;-75
2024/02/21 02:28:21;;;;;;;0.90;0.60;;;10.00;99.90;;;;;;5108862;28;20475;-75
2024/02/21 02:30:48;;;;;;;7.45;1.35;;;10.00;99.90;;;;;;5089251;28;20329;-75
2024/02/21 02:33:14;;;;;;;7.93;1.73;;;10.00;99.90;;;;;;5100750;28;20165;-75
2024/02/21 02:35:40;;;;;;;2.00;1.20;;;10.00;99.90;;;;;;5107927;28;20042;-75
2024/02/21 02:38:06;;;;;;;5.90;1.27;;;10.00;99.90;;;;;;5103041;28;20044;-75
2024/02/21 02:40:34;;;;;;;5.30;1.20;;;9.90;99.90;;;;;;5100100;28;20495;-75
2024/02/21 02:43:00;;;;;;;2.95;1.35;;;9.90;99.90;;;;;;5104962;28;20043;-74
2024/02/21 02:45:26;;;;;;;4.20;1.45;;;9.90;99.90;;;;;;5081446;28;20046;-74
2024/02/21 02:47:54;;;;;;;5.20;0.75;;;9.90;99.90;;;;;;5107975;28;20587;-75
2024/02/21 02:50:20;;;;;;;1.85;0.82;;;9.90;99.90;;;;;;5102874;28;20051;-75
2024/02/21 02:52:45;;;;;;;4.85;1.38;;;9.90;99.90;;;;;;5105371;28;20044;-75
2024/02/21 02:55:11;;;;;;;4.00;1.13;;;9.90;99.90;;;;;;5083383;28;20040;-76
2024/02/21 02:57:37;;;;;;;2.08;0.95;;;9.90;99.90;;;;;;5087204;28;20410;-75
2024/02/21 03:00:06;;;;;;;2.15;1.13;;;9.90;99.90;;;;;;5107030;28;20096;-75
2024/02/21 03:02:32;;;;;;;6.10;1.27;;;9.90;99.90;;;;;;5105462;28;20035;-75
2024/02/21 03:04:58;;;;;;;0.35;0.30;;;9.80;99.90;;;;;;5105017;28;20040;-75
2024/02/21 03:07:25;;;;;;;2.97;1.33;;;9.90;99.90;;;;;;5119461;28;20043;-75
2024/02/21 03:09:52;;;;;;;3.63;0.90;;;9.80;99.90;;;;;;5106764;28;20044;-75
2024/02/21 03:12:27;;;;;;;0.95;0.60;;;9.90;99.90;;;;;;5103515;28;20093;-75
2024/02/21 03:14:53;;;;;;;1.85;0.80;;;9.90;99.90;;;;;;5106243;28;20123;-75
2024/02/21 03:17:19;;;;;;;3.45;0.57;;;9.90;99.90;;;;;;5087586;28;20040;-75
2024/02/21 03:19:44;;;;;;;4.65;0.70;;;9.90;99.90;;;;;;5092731;28;20050;-75
2024/02/21 03:22:10;;;;;;;2.63;1.20;;;9.90;99.90;;;;;;5109359;28;20043;-75
2024/02/21 03:24:36;;;;;;;1.08;0.50;;;9.90;99.90;;;;;;5090108;28;20050;-75
2024/02/21 03:27:02;;;;;;;1.73;1.00;;;9.90;99.90;;;;;;5104386;28;20043;-75
2024/02/21 03:29:27;;;;;;;2.83;0.68;;;9.90;99.90;;;;;;5108871;28;20046;-76
2024/02/21 03:31:53;;;;;;;9.02;1.17;;;9.90;99.90;;;;;;5109476;28;20032;-75
2024/02/21 03:34:19;;;;;;;3.30;0.50;;;9.90;99.90;;;;;;5095678;28;20064;-74
2024/02/21 03:36:45;;;;;;;2.05;0.68;;;9.90;99.90;;;;;;5089387;28;20035;-75
2024/02/21 03:39:10;;;;;;;3.10;0.68;;;9.90;99.90;;;;;;5089939;28;20471;-75
2024/02/21 03:41:36;;;;;;;1.08;0.40;;;9.90;99.90;;;;;;5109043;28;20036;-76
2024/02/21 03:44:02;;;;;;;0.40;0.30;;;9.80;99.90;;;;;;5108778;28;20036;-75
2024/02/21 03:46:27;;;;;;;2.55;0.95;;;9.90;99.90;;;;;;5112364;28;20043;-76
2024/02/21 03:48:53;;;;;;;3.80;0.52;;;9.90;99.90;;;;;;5105238;28;20550;-74
2024/02/21 03:51:19;;;;;;;5.20;1.60;;;9.90;99.90;;;;;;5094400;28;20470;-75
2024/02/21 03:53:44;;;;;;;4.00;1.05;;;9.90;99.90;;;;;;5085867;28;20032;-75
2024/02/21 03:56:10;;;;;;;5.55;0.57;;;9.90;99.90;;;;;;5109020;28;20459;-76
2024/02/21 03:58:36;;;;;;;3.65;0.45;;;9.90;99.90;;;;;;5107725;28;20047;-75
2024/02/21 04:01:02;;;;;;;6.47;0.98;;;9.80;99.90;;;;;;5110632;28;20050;-75
2024/02/21 04:03:28;;;;;;;4.88;0.68;;;9.90;99.90;;;;;;5104539;28;20502;-76
2024/02/21 04:05:54;;;;;;;1.48;0.43;;;9.90;99.90;;;;;;5107401;28;20032;-75
2024/02/21 04:08:19;;;;;;;4.57;0.60;;;9.90;99.90;;;;;;5107848;28;20042;-75
2024/02/21 04:10:45;;;;;;;3.58;0.40;;;9.90;99.90;;;;;;5089791;28;20080;-76
2024/02/21 04:13:11;;;;;;;1.08;0.52;;;9.90;99.90;;;;;;5107754;28;20093;-76
2024/02/21 04:15:36;;;;;;;8.60;1.27;;;9.90;99.90;;;;;;5105662;28;20078;-76
2024/02/21 04:18:05;;;;;;;4.35;0.73;;;9.90;99.90;;;;;;5107329;28;20035;-76
2024/02/21 04:20:31;;;;;;;3.03;0.55;;;9.90;99.90;;;;;;5107222;28;20406;-76
2024/02/21 04:22:57;;;;;;;0.98;0.50;;;9.90;99.90;;;;;;5084895;28;20097;-75
2024/02/21 04:25:22;;;;;;;5.43;0.65;;;9.90;99.90;;;;;;5106925;28;20245;-76
2024/02/21 04:27:48;;;;;;;10.70;1.63;;;9.90;99.90;;;;;;5111315;28;20040;-75
2024/02/21 04:30:15;;;;;;;9.40;1.17;;;9.90;99.90;;;;;;5092200;28;20067;-76
2024/02/21 04:32:41;;;;;;;2.22;0.70;;;9.90;99.90;;;;;;5094555;28;20043;-77
2024/02/21 04:35:07;;;;;;;3.65;1.05;;;9.90;99.90;;;;;;5106823;28;20058;-76
2024/02/21 04:37:33;;;;;;;10.68;1.50;;;9.90;99.90;;;;;;5112149;28;20055;-76
2024/02/21 04:39:59;;;;;;;2.05;0.63;;;9.90;99.90;;;;;;5083179;28;20490;-76
2024/02/21 04:42:24;;;;;;;3.60;1.73;;;9.90;99.90;;;;;;5110982;28;20053;-76
2024/02/21 04:44:50;;;;;;;6.78;1.23;;;9.90;99.90;;;;;;5104614;28;20039;-76
2024/02/21 04:47:16;;;;;;;10.25;2.22;;;9.90;99.90;;;;;;5090899;28;20043;-76
2024/02/21 04:49:42;;;;;;;5.18;1.55;;;9.90;99.90;;;;;;5083936;28;20098;-76
2024/02/21 04:52:07;;;;;;;3.45;1.42;;;9.90;99.90;;;;;;5106675;28;20039;-76
2024/02/21 04:54:35;;;;;;;4.60;1.88;;;9.90;99.90;;;;;;5092253;28;20621;-76
2024/02/21 04:57:01;;;;;;;3.05;0.82;;;9.90;99.90;;;;;;5105990;28;20060;-76
2024/02/21 04:59:27;;;;;;;4.57;2.17;;;9.90;99.90;;;;;;5107704;28;20032;-76
2024/02/21 05:01:53;;;;;;;4.28;0.85;;;9.90;99.90;;;;;;5085539;28;20039;-76
2024/02/21 05:04:18;;;;;;;2.38;1.38;;;9.90;99.90;;;;;;5083737;28;20446;-75
2024/02/21 05:06:44;;;;;;;4.55;1.65;;;9.90;99.90;;;;;;5108421;28;20038;-76
2024/02/21 05:09:10;;;;;;;5.20;0.90;;;9.90;99.90;;;;;;5105631;28;20143;-76
2024/02/21 05:11:37;;;;;;;6.25;1.00;;;9.90;99.90;;;;;;5107524;28;20063;-76
2024/02/21 05:14:04;;;;;;;3.08;1.00;;;9.90;99.90;;;;;;5090930;28;20036;-77
2024/02/21 05:16:33;;;;;;;5.13;1.75;;;9.90;99.90;;;;;;5104323;28;20036;-77
2024/02/21 05:18:58;;;;;;;6.65;1.65;;;9.90;99.90;;;;;;5108587;28;20043;-77
2024/02/21 05:21:24;;;;;;;6.68;1.83;;;9.90;99.90;;;;;;5104853;28;20055;-77
2024/02/21 05:23:51;;;;;;;5.45;1.23;;;9.90;99.90;;;;;;5108954;28;20041;-76
2024/02/21 05:26:27;;;;;;;4.90;1.23;;;9.90;99.90;;;;;;5106445;28;20047;-76
2024/02/21 05:28:53;;;;;;;8.73;1.40;;;9.90;99.90;;;;;;5107343;28;20079;-76
2024/02/21 05:31:19;;;;;;;5.22;1.13;;;9.90;99.90;;;;;;5087655;28;20505;-73
2024/02/21 05:33:46;;;;;;;4.32;1.30;;;9.90;99.90;;;;;;5090065;28;20497;-77
2024/02/21 05:36:12;;;;;;;2.63;0.70;;;9.90;99.90;;;;;;5101202;28;20040;-76
2024/02/21 05:38:38;;;;;;;6.85;1.83;;;9.90;99.90;;;;;;5109385;28;20525;-76
2024/02/21 05:41:04;;;;;;;8.20;1.75;;;9.90;99.90;;;;;;5103710;28;20123;-77
2024/02/21 05:43:30;;;;;;;5.03;1.27;;;9.90;99.90;;;;;;5107691;28;20135;-76
2024/02/21 05:45:56;;;;;;;4.78;0.77;;;9.90;99.90;;;;;;5081846;28;20049;-77
2024/02/21 05:48:22;;;;;;;7.22;1.13;;;10.00;99.90;;;;;;5107999;28;20043;-76
2024/02/21 05:50:48;;;;;;;7.13;1.15;;;9.90;99.90;;;;;;5107753;28;20048;-77
2024/02/21 05:53:14;;;;;;;4.75;1.08;;;9.90;99.90;;;;;;5108481;28;20039;-76
2024/02/21 05:55:40;;;;;;;1.90;0.90;;;10.00;99.90;;;;;;5107405;28;20031;-77
2024/02/21 05:58:06;;;;;;;3.90;0.57;;;10.00;99.90;;;;;;5106514;28;20044;-77
2024/02/21 06:00:32;;;;;;;2.13;0.73;;;9.90;99.90;;;;;;5106745;28;20122;-76
2024/02/21 06:02:59;;;;;;;3.78;0.82;;;10.00;99.90;;;;;;5083409;28;20127;-77
2024/02/21 06:05:24;;;;;;;3.95;0.88;;;10.00;99.90;;;;;;5107544;28;20040;-76
2024/02/21 06:07:50;;;;;;;3.20;0.90;;;9.90;99.90;;;;;;5084721;28;20062;-77
2024/02/21 06:10:16;;;;;;;8.13;1.98;;;10.00;99.90;;;;;;5105628;28;20123;-76
2024/02/21 06:12:42;;;;;;;7.32;1.38;;;9.90;99.90;;;;;;5106934;28;20441;-74
2024/02/21 06:15:08;;;;;;;3.13;0.82;;;9.90;99.90;;;;;;5107586;28;20043;-77
2024/02/21 06:17:34;;;;;;;10.10;1.55;;;9.90;99.90;;;;;;5102858;28;20106;-76
2024/02/21 06:20:00;;;;;;;4.03;0.60;;;9.90;99.90;;;;;;5109398;28;20051;-76
2024/02/21 06:22:25;;;;;;;5.07;1.20;;;9.90;99.90;;;;;;5106639;28;20039;-76
2024/02/21 06:24:53;;;;;;;6.63;0.70;;;9.90;99.90;;;;;;5088653;28;20047;-78
2024/02/21 06:27:18;;;;;;;4.85;1.35;;;9.90;99.90;;;;;;5103348;28;20067;-75
2024/02/21 06:29:44;;;;;;;1.35;0.73;;;9.90;99.90;;;;;;5105817;28;20101;-77
2024/02/21 06:32:10;;;;;;;4.95;0.70;;;9.90;99.90;;;;;;5085881;28;20118;-77
2024/02/21 06:34:35;;;;;;;3.15;1.60;;;9.90;99.90;;;;;;5104981;28;20097;-77
2024/02/21 06:37:01;;;;;;;1.73;0.82;;;10.00;99.90;;;;;;5104786;28;20040;-77
2024/02/21 06:39:28;;;;;;;4.18;1.23;;;10.00;99.90;;;;;;5104791;28;20044;-77
2024/02/21 06:41:54;;;;;;;4.97;1.02;;;10.00;99.90;;;;;;5107980;28;20094;-77
2024/02/21 06:44:21;;;;;;;3.83;1.58;;;9.90;99.90;;;;;;5097363;28;20082;-76
2024/02/21 06:46:47;;;;;;;2.13;0.90;;;9.90;99.90;;;;;;5107216;28;20487;-77
2024/02/21 06:49:15;;;;;;;4.88;1.27;;;10.00;99.90;;;;;;5081347;28;20132;-77
2024/02/21 06:51:42;;;;;;;7.05;1.40;;;9.90;99.90;;;;;;5104485;28;20039;-77
2024/02/21 06:54:09;;;;;;;1.85;1.08;;;10.00;99.90;;;;;;5099734;28;20111;-77
2024/02/21 06:56:36;;;;;;;1.38;0.80;;;10.00;99.90;;;;;;5081605;28;20028;-77
2024/02/21 06:59:05;;;;;;;2.30;1.00;;;10.00;99.90;;;;;;5105202;28;20040;-77
2024/02/21 07:01:31;;;;;;;2.45;1.27;;;10.00;99.90;;;;;;5101447;28;20379;-77
2024/02/21 07:03:57;;;;;;;4.50;1.23;;;10.00;99.90;;;;;;5106092;28;20040;-76
2024/02/21 07:06:23;;;;;;;6.57;1.73;;;10.00;99.90;;;;;;5102283;28;20335;-76
2024/02/21 07:08:49;;;;;;;3.58;1.60;;;10.00;99.90;;;;;;5085792;28;20043;-76
2024/02/21 07:11:14;;;;;;;6.82;2.13;;;10.00;99.90;;;;;;5105473;28;20031;-76
2024/02/21 07:13:40;;;;;;;4.10;1.70;;;10.00;99.90;;;;;;5083275;28;20048;-77
2024/02/21 07:16:07;;;;;;;7.38;1.65;;;10.00;99.90;;;;;;5105970;28;20036;-77
2024/02/21 07:18:32;;;;;;;3.35;1.67;;;10.00;99.90;;;;;;5105381;28;20144;-76
2024/02/21 07:20:58;;;;;;;7.63;1.58;;;10.00;99.90;;;;;;5108689;28;20059;-76
2024/02/21 07:23:24;;;;;;;9.18;1.98;;;10.00;99.90;;;;;;5089867;28;20036;-76
2024/02/21 07:25:50;;;;;;;7.70;1.98;;;10.00;99.90;;;;;;5105833;28;20067;-76
2024/02/21 07:28:16;;;;;;;3.85;1.27;;;9.90;99.90;;;;;;5099920;28;20097;-76
2024/02/21 07:30:42;;;;;;;4.57;2.15;;;9.90;99.90;;;;;;5087744;28;20032;-76
2024/02/21 07:33:08;;;;;;;3.00;1.60;;;10.00;99.90;;;;;;5104294;28;20479;-77
2024/02/21 07:35:34;;;;;;;10.27;2.08;;;9.90;99.90;;;;;;5108010;28;20032;-76
2024/02/21 07:38:00;;;;;;;4.05;1.52;;;10.00;99.90;;;;;;5098803;28;20056;-76
2024/02/21 07:40:25;;;;;;;3.38;1.70;;;9.90;99.90;;;;;;5090691;28;20489;-76
2024/02/21 07:42:51;;;;;;;6.10;3.08;;;9.90;99.90;;;;;;5082582;28;20046;-75
2024/02/21 07:45:18;;;;;;;3.75;2.53;;;10.00;99.90;;;;;;5106835;28;20047;-76
2024/02/21 07:47:44;;;;;;;6.05;2.55;;;10.00;99.90;;;;;;5105417;28;20047;-76
2024/02/21 07:50:10;;;;;;;4.10;2.70;;;10.00;99.90;;;;;;5106534;28;20599;-76
2024/02/21 07:52:35;;;;;;;7.15;1.90;;;10.00;99.90;;;;;;5089817;28;20031;-76
2024/02/21 07:55:01;;;;;;;6.32;1.95;;;10.00;99.90;;;;;;5103563;28;20115;-74
2024/02/21 07:57:27;;;;;;;4.22;2.40;;;10.00;99.90;;;;;;5089420;28;20040;-76
2024/02/21 07:59:53;;;;;;;3.55;2.33;;;10.00;99.90;;;;;;5102524;28;20108;-76
2024/02/21 08:02:19;;;;;;;4.22;2.22;;;10.00;99.90;;;;;;5088265;28;20047;-76
2024/02/21 08:04:45;;;;;;;5.72;2.22;;;10.00;99.90;;;;;;5098698;28;20839;-75
2024/02/21 08:07:11;;;;;;;5.00;2.63;;;10.00;99.90;;;;;;5107167;28;20039;-76
2024/02/21 08:09:37;;;;;;;8.55;2.70;;;10.00;99.90;;;;;;5107948;28;20063;-76
2024/02/21 08:12:04;;;;;;;9.30;3.30;;;10.00;99.90;;;;;;5091617;28;20039;-77
2024/02/21 08:14:30;;;;;;;8.93;2.30;;;10.00;99.90;;;;;;5089633;28;20088;-76
2024/02/21 08:16:56;;;;;;;4.35;2.17;;;10.00;99.90;;;;;;5111602;28;20027;-75
2024/02/21 08:19:24;;;;;;;12.68;3.05;;;10.00;99.90;;;;;;5103831;28;20525;-75
2024/02/21 08:21:50;;;;;;;4.15;2.58;;;10.00;99.90;;;;;;5110300;28;20047;-76
2024/02/21 08:24:16;;;;;;;5.05;2.65;;;10.00;99.90;;;;;;5100986;28;20512;-76
2024/02/21 08:26:42;;;;;;;3.58;2.30;;;10.00;99.90;;;;;;5102859;28;20118;-75
2024/02/21 08:29:08;;;;;;;13.20;3.65;;;10.00;99.90;;;;;;5083575;28;20065;-76
2024/02/21 08:31:34;;;;;;;4.93;2.50;;;10.00;99.90;;;;;;5108908;28;20526;-76
2024/02/21 08:34:03;;;;;;;7.05;3.65;;;10.00;99.90;;;;;;5105111;28;20083;-75
2024/02/21 08:36:34;;;;;;;6.05;3.50;;;10.00;99.90;;;;;;5085751;28;20127;-76
2024/02/21 08:39:01;;;;;;;5.45;2.92;;;10.00;99.90;;;;;;5104805;28;20039;-76
2024/02/21 08:41:27;;;;;;;5.45;2.50;;;10.00;99.90;;;;;;5108260;28;20047;-76
2024/02/21 08:43:54;;;;;;;3.53;2.60;;;10.00;99.90;;;;;;5091845;28;20154;-74
2024/02/21 08:46:24;;;;;;;7.20;2.60;;;10.00;99.90;;;;;;5107056;28;20043;-75
2024/02/21 08:48:53;;;;;;;8.23;4.35;;;10.00;99.90;;;;;;5102431;28;20375;-75
2024/02/21 08:51:19;;;;;;;6.28;2.85;;;10.00;99.90;;;;;;5108275;28;20122;-75
2024/02/21 08:53:45;;;;;;;6.13;3.40;;;10.00;99.90;;;;;;5107361;28;20494;-76
2024/02/21 08:56:11;;;;;;;10.45;3.67;;;10.00;99.90;;;;;;5101359;28;20047;-76
2024/02/21 08:58:39;;;;;;;4.18;2.75;;;10.10;99.90;;;;;;5107084;28;20047;-75
2024/02/21 09:01:06;;;;;;;5.43;2.85;;;10.00;99.90;;;;;;5105538;28;20044;-75
2024/02/21 09:03:33;;;;;;;8.80;3.33;;;10.00;99.90;;;;;;5109177;28;20039;-75
2024/02/21 09:05:59;;;;;;;9.05;3.53;;;10.00;99.90;;;;;;5089365;28;20510;-76
2024/02/21 09:08:26;;;;;;;6.38;3.40;;;10.00;99.90;;;;;;5109109;28;20943;-76
2024/02/21 09:10:51;;;;;;;6.97;2.78;;;10.10;99.90;;;;;;5105695;28;20044;-75
2024/02/21 09:13:17;;;;;;;5.63;3.25;;;10.00;99.90;;;;;;5109697;28;20503;-76
2024/02/21 09:15:43;;;;;;;8.93;4.43;;;10.00;99.90;;;;;;5104676;28;20797;-76
2024/02/21 09:18:09;;;;;;;5.88;3.38;;;10.10;99.90;;;;;;5107099;28;20577;-75
2024/02/21 09:20:34;;;;;;;7.38;4.03;;;10.10;99.90;;;;;;5105086;28;20463;-76
2024/02/21 09:23:00;;;;;;;7.28;4.10;;;10.10;99.90;;;;;;5093325;28;20043;-75
2024/02/21 09:25:29;;;;;;;5.25;3.67;;;10.10;99.90;;;;;;5100818;28;20040;-76
2024/02/21 09:27:55;;;;;;;7.38;3.67;;;10.20;99.90;;;;;;5107722;28;20036;-76
2024/02/21 09:30:20;;;;;;;8.23;4.70;;;10.20;99.90;;;;;;5101642;28;20093;-75
2024/02/21 09:32:46;;;;;;;8.60;3.85;;;10.20;99.90;;;;;;5105696;28;20032;-75
2024/02/21 09:35:12;;;;;;;4.00;2.83;;;10.20;99.90;;;;;;5083455;28;20035;-75
2024/02/21 09:37:39;;;;;;;6.78;3.58;;;10.30;99.90;;;;;;5106086;28;20048;-75
2024/02/21 09:40:05;;;;;;;9.40;4.07;;;10.30;99.90;;;;;;5102961;28;20047;-75
2024/02/21 09:42:41;;;;;;;6.30;3.65;;;10.30;99.90;;;;;;5108527;28;20038;-74
2024/02/21 09:45:25;;;;;;;5.82;3.83;;;10.40;99.90;;;;;;5103892;28;20035;-75
2024/02/21 09:48:41;;;;;;;5.43;3.40;;;10.40;99.90;;;;;;5106975;28;20384;-74
2024/02/21 09:51:10;;;;;;;11.02;3.58;;;10.40;99.90;;;;;;5029751;28;20417;-74
2024/02/21 09:53:38;;;;;;;8.85;3.00;;;10.50;99.90;;;;;;5028516;28;20045;-75
2024/02/21 09:56:07;;;;;;;9.45;4.50;;;10.60;99.90;;;;;;5069960;27;20145;-74
2024/02/21 09:58:34;;;;;;;10.20;4.15;;;10.60;99.90;;;;;;5082594;28;20126;-75
2024/02/21 10:01:00;;;;;;;6.50;3.70;;;10.70;99.90;;;;;;5106883;28;20035;-75
2024/02/21 10:03:26;;;;;;;5.93;3.50;;;10.70;99.90;;;;;;5108311;28;20046;-74
2024/02/21 10:05:52;;;;;;;8.70;3.85;;;10.70;99.90;;;;;;5082490;28;20050;-73
2024/02/21 10:08:19;;;;;;;6.22;3.88;;;10.70;99.90;;;;;;5103911;28;20040;-75
2024/02/21 10:10:46;;;;;;;9.50;3.65;;;10.70;99.90;;;;;;5107313;28;20373;-74
2024/02/21 10:13:26;;;;;;;10.43;4.00;;;10.80;99.90;;;;;;5106544;28;20035;-75
2024/02/21 10:16:06;;;;;;;6.28;3.42;;;10.80;99.90;;;;;;5104425;28;20067;-75
2024/02/21 10:18:33;;;;;;;6.53;3.88;;;10.80;99.90;;;;;;5108777;28;20065;-75
2024/02/21 10:21:04;;;;;;;5.38;3.50;;;10.80;99.90;;;;;;5086586;28;20067;-75
2024/02/21 10:23:29;;;;;;;5.72;3.05;;;10.80;99.90;;;;;;5103046;28;20120;-75
2024/02/21 10:26:07;;;;;;;5.75;3.33;;;10.80;99.90;;;;;;5104739;28;20495;-75
2024/02/21 10:28:32;;;;;;;5.80;3.05;;;10.80;99.90;;;;;;5087370;28;20112;-75
2024/02/21 10:30:58;;;;;;;5.03;3.25;;;10.80;99.90;;;;;;5106933;28;20093;-75
2024/02/21 10:33:25;;;;;;;7.88;3.25;;;10.80;99.90;;;;;;5102960;28;20028;-75
2024/02/21 10:35:51;;;;;;;5.60;2.35;;;10.80;99.90;;;;;;5108013;28;20380;-75
2024/02/21 10:38:17;;;;;;;3.80;2.25;;;10.80;99.90;;;;;;5086777;28;20035;-75
2024/02/21 10:40:43;;;;;;;4.43;2.25;;;10.80;99.90;;;;;;5090621;28;20043;-75
2024/02/21 10:43:13;;;;;;;4.28;2.30;;;10.80;99.90;;;;;;5089144;28;20126;-76
2024/02/21 10:45:41;;;;;;;7.18;3.03;;;10.90;99.90;;;;;;5102725;28;20457;-76
2024/02/21 10:48:12;;;;;;;8.05;2.60;;;10.90;99.90;;;;;;5107233;28;20437;-75
2024/02/21 10:51:01;;;;;;;5.05;2.55;;;10.90;99.90;;;;;;5092424;28;20487;-76
2024/02/21 10:53:41;;;;;;;5.32;1.40;;;10.90;99.90;;;;;;5082434;28;20051;-74
2024/02/21 10:56:36;;;;;;;4.93;2.67;;;11.00;99.90;;;;;;5105269;28;20071;-75
2024/02/21 10:59:06;;;;;;;4.47;2.20;;;11.00;99.90;;;;;;5086971;28;20434;-75
2024/02/21 11:01:35;;;;;;;2.28;1.75;;;11.10;99.90;;;;;;5107351;28;20039;-75
2024/02/21 11:04:08;;;;;;;2.92;1.80;;;11.10;99.90;;;;;;5102547;28;20051;-75
2024/02/21 11:06:40;;;;;;;3.58;1.95;;;11.10;99.90;;;;;;5105482;28;20403;-75
2024/02/21 11:09:09;;;;;;;7.85;2.72;;;11.10;99.90;;;;;;5097391;28;20060;-76
2024/02/21 11:11:39;;;;;;;2.55;1.98;;;11.10;99.90;;;;;;5100346;28;20383;-75
2024/02/21 11:14:09;;;;;;;4.60;1.98;;;11.10;99.90;;;;;;5103040;28;20032;-75
2024/02/21 11:16:42;;;;;;;5.45;2.10;;;11.10;99.90;;;;;;5102066;28;20040;-74
2024/02/21 11:19:25;;;;;;;7.10;2.22;;;11.10;99.90;;;;;;5087511;28;20172;-75
2024/02/21 11:21:52;;;;;;;4.90;2.38;;;11.20;99.90;;;;;;5085694;28;20096;-75
2024/02/21 11:24:32;;;;;;;8.05;1.77;;;11.20;99.90;;;;;;5084169;28;20040;-75
2024/02/21 11:27:21;;;;;;;2.30;1.50;;;11.10;99.90;;;;;;5105885;28;20040;-75
2024/02/21 11:29:58;;;;;;;3.22;1.88;;;11.10;99.90;;;;;;5095397;28;20135;-76
2024/02/21 11:32:29;;;;;;;3.47;1.75;;;11.10;99.90;;;;;;5089966;28;20028;-75
2024/02/21 11:35:03;;;;;;;3.15;2.22;;;11.00;99.90;;;;;;5095764;28;20040;-75
2024/02/21 11:37:30;;;;;;;6.03;1.77;;;11.10;99.90;;;;;;5102873;28;20051;-76
2024/02/21 11:39:57;;;;;;;6.95;2.80;;;11.10;99.90;;;;;;5105150;28;20047;-75
2024/02/21 11:42:24;;;;;;;2.40;1.58;;;11.10;99.90;;;;;;5081675;28;20047;-75
2024/02/21 11:44:50;;;;;;;4.97;2.72;;;11.10;99.90;;;;;;5084739;28;20047;-75
2024/02/21 11:47:17;;;;;;;4.60;2.35;;;11.10;99.90;;;;;;5106372;28;20043;-74
2024/02/21 11:49:49;;;;;;;3.78;1.88;;;11.10;99.90;;;;;;5104213;28;20056;-75
2024/02/21 11:52:18;;;;;;;3.42;1.30;;;11.10;99.90;;;;;;5086622;28;20032;-74
2024/02/21 11:54:44;;;;;;;3.05;2.08;;;11.10;99.90;;;;;;5105056;28;20109;-75
2024/02/21 11:57:11;;;;;;;3.33;1.70;;;11.10;99.90;;;;;;5087927;28;20032;-75
2024/02/21 11:59:37;;;;;;;2.33;1.88;;;11.10;99.90;;;;;;5087784;28;20035;-76
2024/02/21 12:02:03;;;;;;;3.03;1.52;;;11.10;99.90;;;;;;5107067;28;20036;-76
2024/02/21 12:04:30;;;;;;;5.00;1.80;;;11.10;99.90;;;;;;5104403;28;20075;-75
2024/02/21 12:06:57;;;;;;;2.95;1.55;;;11.00;99.90;;;;;;5107798;28;20074;-75
2024/02/21 12:09:25;;;;;;;3.20;2.10;;;11.10;99.90;;;;;;5107267;28;20147;-75
2024/02/21 12:12:01;;;;;;;3.22;2.00;;;11.10;99.90;;;;;;5107666;28;20483;-76
2024/02/21 12:14:29;;;;;;;3.60;1.52;;;11.00;99.90;;;;;;5107545;28;20036;-76
2024/02/21 12:16:55;;;;;;;3.03;1.70;;;11.10;99.90;;;;;;5107466;28;20051;-76
2024/02/21 12:19:21;;;;;;;5.78;2.53;;;11.10;99.90;;;;;;5108026;28;20035;-75
2024/02/21 12:21:49;;;;;;;2.15;1.30;;;11.10;99.90;;;;;;5106336;28;20044;-75
2024/02/21 12:24:16;;;;;;;4.88;1.70;;;11.10;99.90;;;;;;5108068;28;20040;-76
2024/02/21 12:26:42;;;;;;;2.42;1.55;;;11.20;99.90;;;;;;5108786;28;20410;-76
2024/02/21 12:29:09;;;;;;;3.05;1.70;;;11.20;99.90;;;;;;5111245;28;20091;-75
2024/02/21 12:31:38;;;;;;;2.38;1.40;;;11.20;99.90;;;;;;5108805;28;20039;-75
2024/02/21 12:34:05;;;;;;;3.13;1.92;;;11.20;99.90;;;;;;5091375;28;20047;-75
2024/02/21 12:36:32;;;;;;;3.90;2.08;;;11.30;99.90;;;;;;5108171;28;20055;-76
2024/02/21 12:38:58;;;;;;;4.35;1.25;;;11.30;99.90;;;;;;5106608;28;20486;-76
2024/02/21 12:41:25;;;;;;;3.20;1.80;;;11.20;99.90;;;;;;5107355;28;20039;-76
2024/02/21 12:43:51;;;;;;;8.63;2.00;;;11.20;99.90;;;;;;5109772;28;20122;-76
2024/02/21 12:46:16;;;;;;;1.90;1.38;;;11.10;99.90;;;;;;5108139;28;20051;-76
2024/02/21 12:48:42;;;;;;;1.88;1.65;;;11.10;99.90;;;;;;5087485;28;20055;-77
2024/02/21 12:51:08;;;;;;;1.73;1.10;;;11.10;99.90;;;;;;5087102;28;20032;-76